createdAt,value
2022-07-25T00:00:57.227Z,0.00
2022-07-25T00:01:57.255Z,0.00
2022-07-25T00:02:57.192Z,0.00
2022-07-25T00:03:57.179Z,0.00
2022-07-25T00:04:57.210Z,0.00
2022-07-25T00:05:57.133Z,0.00
2022-07-25T00:06:57.144Z,0.00
2022-07-25T00:07:57.105Z,0.00
2022-07-25T00:08:57.110Z,0.00
2022-07-25T00:09:57.079Z,0.00
2022-07-25T00:10:57.079Z,0.00
2022-07-25T00:11:57.165Z,0.00
2022-07-25T00:12:57.056Z,0.00
2022-07-25T00:13:57.069Z,0.00
2022-07-25T00:14:57.023Z,0.00
2022-07-25T00:15:57.115Z,0.00
2022-07-25T00:16:56.979Z,0.00
2022-07-25T00:17:56.986Z,0.00
2022-07-25T00:18:56.969Z,0.00
2022-07-25T00:19:56.954Z,0.00
2022-07-25T00:20:56.959Z,0.00
2022-07-25T00:21:56.911Z,0.00
2022-07-25T00:22:56.936Z,0.00
2022-07-25T00:23:56.916Z,0.00
2022-07-25T00:24:56.920Z,0.00
2022-07-25T00:25:56.879Z,0.00
2022-07-25T00:26:56.859Z,0.00
2022-07-25T00:27:56.852Z,0.00
2022-07-25T00:28:56.862Z,0.00
2022-07-25T00:29:56.851Z,0.00
2022-07-25T00:30:56.936Z,0.00
2022-07-25T00:31:56.799Z,0.00
2022-07-25T00:32:56.781Z,0.00
2022-07-25T00:33:56.909Z,0.00
2022-07-25T00:34:56.771Z,0.00
2022-07-25T00:35:56.746Z,0.00
2022-07-25T00:36:56.746Z,0.00
2022-07-25T00:37:56.727Z,0.00
2022-07-25T00:38:56.734Z,0.00
2022-07-25T00:39:56.689Z,0.00
2022-07-25T00:40:56.689Z,0.00
2022-07-25T00:41:56.670Z,0.00
2022-07-25T00:42:56.678Z,0.00
2022-07-25T00:43:56.660Z,0.00
2022-07-25T00:44:56.634Z,0.00
2022-07-25T00:45:56.658Z,0.00
2022-07-25T00:46:56.811Z,0.00
2022-07-25T00:47:56.605Z,0.00
2022-07-25T00:48:56.699Z,0.00
2022-07-25T00:49:56.552Z,0.00
2022-07-25T00:50:56.556Z,0.00
2022-07-25T00:51:56.555Z,0.00
2022-07-25T00:52:56.534Z,0.00
2022-07-25T00:53:56.538Z,0.00
2022-07-25T00:54:56.518Z,0.00
2022-07-25T00:55:56.486Z,0.00
2022-07-25T00:56:56.505Z,0.00
2022-07-25T00:57:56.452Z,0.00
2022-07-25T00:58:56.455Z,0.00
2022-07-25T00:59:56.464Z,0.00
2022-07-25T01:00:56.431Z,0.00
2022-07-25T01:01:56.444Z,0.00
2022-07-25T01:02:56.499Z,0.00
2022-07-25T01:03:56.393Z,0.00
2022-07-25T01:04:56.402Z,0.00
2022-07-25T01:05:56.366Z,0.00
2022-07-25T01:06:56.362Z,0.00
2022-07-25T01:07:56.346Z,0.00
2022-07-25T01:08:56.333Z,0.00
2022-07-25T01:09:56.295Z,0.00
2022-07-25T01:10:56.311Z,0.00
2022-07-25T01:11:56.287Z,0.00
2022-07-25T01:12:56.304Z,0.00
2022-07-25T01:13:56.241Z,0.00
2022-07-25T01:14:56.312Z,0.00
2022-07-25T01:15:56.313Z,0.00
2022-07-25T01:16:56.249Z,0.00
2022-07-25T01:17:56.471Z,0.00
2022-07-25T01:18:56.341Z,0.00
2022-07-25T01:19:56.282Z,0.00
2022-07-25T01:20:56.356Z,0.00
2022-07-25T01:21:56.204Z,0.00
2022-07-25T01:22:56.280Z,0.00
2022-07-25T01:23:56.271Z,0.00
2022-07-25T01:24:56.229Z,0.00
2022-07-25T01:25:56.234Z,0.00
2022-07-25T01:26:56.200Z,0.00
2022-07-25T01:27:56.355Z,0.00
2022-07-25T01:28:56.210Z,0.00
2022-07-25T01:29:56.164Z,0.00
2022-07-25T01:30:56.084Z,0.00
2022-07-25T01:31:56.126Z,0.00
2022-07-25T01:32:56.184Z,0.00
2022-07-25T01:33:56.107Z,0.00
2022-07-25T01:34:56.101Z,0.00
2022-07-25T01:35:56.064Z,0.00
2022-07-25T01:36:56.064Z,0.00
2022-07-25T01:37:56.070Z,0.00
2022-07-25T01:38:56.075Z,0.00
2022-07-25T01:39:56.085Z,0.00
2022-07-25T01:40:56.052Z,0.00
2022-07-25T01:41:56.001Z,0.00
2022-07-25T01:42:55.955Z,0.00
2022-07-25T01:43:56.064Z,0.00
2022-07-25T01:44:55.974Z,0.00
2022-07-25T01:45:56.097Z,0.00
2022-07-25T01:46:55.934Z,0.00
2022-07-25T01:47:55.935Z,0.00
2022-07-25T01:48:56.017Z,0.00
2022-07-25T01:49:55.923Z,0.00
2022-07-25T01:50:55.931Z,0.00
2022-07-25T01:51:55.867Z,0.00
2022-07-25T01:52:55.872Z,0.00
2022-07-25T01:53:55.836Z,0.00
2022-07-25T01:54:55.844Z,0.00
2022-07-25T01:55:55.854Z,0.00
2022-07-25T01:56:55.796Z,0.00
2022-07-25T01:57:55.805Z,0.00
2022-07-25T01:58:55.712Z,0.00
2022-07-25T01:59:55.764Z,0.00
2022-07-25T02:00:55.780Z,0.00
2022-07-25T02:01:55.735Z,0.00
2022-07-25T02:02:55.790Z,0.00
2022-07-25T02:03:55.709Z,0.00
2022-07-25T02:04:55.699Z,0.00
2022-07-25T02:05:55.712Z,0.00
2022-07-25T02:06:55.663Z,0.00
2022-07-25T02:07:55.679Z,0.00
2022-07-25T02:08:55.680Z,0.00
2022-07-25T02:09:56.968Z,0.00
2022-07-25T02:10:55.659Z,0.00
2022-07-25T02:11:55.605Z,0.00
2022-07-25T02:12:55.561Z,0.00
2022-07-25T02:13:55.526Z,0.00
2022-07-25T02:14:55.576Z,0.00
2022-07-25T02:15:55.530Z,0.00
2022-07-25T02:16:55.657Z,0.00
2022-07-25T02:17:55.595Z,0.00
2022-07-25T02:18:55.509Z,0.00
2022-07-25T02:19:55.418Z,0.00
2022-07-25T02:20:55.356Z,0.00
2022-07-25T02:21:55.369Z,0.00
2022-07-25T02:22:55.362Z,0.00
2022-07-25T02:23:55.354Z,0.00
2022-07-25T02:24:55.311Z,0.00
2022-07-25T02:25:55.333Z,0.00
2022-07-25T02:26:55.294Z,0.00
2022-07-25T02:27:55.288Z,0.00
2022-07-25T02:28:55.250Z,0.00
2022-07-25T02:29:55.260Z,0.00
2022-07-25T02:30:55.296Z,0.00
2022-07-25T02:31:55.256Z,0.00
2022-07-25T02:32:55.200Z,0.00
2022-07-25T02:33:55.218Z,4.00
2022-07-25T02:34:55.177Z,4.00
2022-07-25T02:35:55.202Z,4.00
2022-07-25T02:36:55.145Z,0.00
2022-07-25T02:37:55.140Z,4.00
2022-07-25T02:38:55.140Z,4.00
2022-07-25T02:39:55.119Z,4.00
2022-07-25T02:40:55.123Z,4.00
2022-07-25T02:41:55.115Z,4.00
2022-07-25T02:42:55.097Z,8.00
2022-07-25T02:43:55.083Z,4.00
2022-07-25T02:44:55.049Z,8.00
2022-07-25T02:45:55.171Z,8.00
2022-07-25T02:46:55.505Z,8.00
2022-07-25T02:47:55.052Z,8.00
2022-07-25T02:48:55.066Z,12.00
2022-07-25T02:49:55.014Z,12.00
2022-07-25T02:50:54.966Z,16.00
2022-07-25T02:51:54.958Z,16.00
2022-07-25T02:52:54.952Z,20.00
2022-07-25T02:53:57.762Z,20.00
2022-07-25T02:54:54.954Z,24.00
2022-07-25T02:55:54.917Z,28.00
2022-07-25T02:56:54.891Z,32.00
2022-07-25T02:57:54.894Z,40.00
2022-07-25T02:58:54.864Z,44.00
2022-07-25T02:59:54.892Z,48.00
2022-07-25T03:00:54.891Z,56.00
2022-07-25T03:01:54.905Z,64.00
2022-07-25T03:02:54.851Z,68.00
2022-07-25T03:03:54.889Z,76.00
2022-07-25T03:04:54.815Z,80.00
2022-07-25T03:05:54.809Z,88.00
2022-07-25T03:06:54.769Z,100.00
2022-07-25T03:07:54.780Z,112.00
2022-07-25T03:08:54.729Z,120.00
2022-07-25T03:09:54.738Z,128.00
2022-07-25T03:10:54.701Z,136.00
2022-07-25T03:11:54.717Z,144.00
2022-07-25T03:12:54.692Z,156.00
2022-07-25T03:13:54.685Z,172.00
2022-07-25T03:14:54.646Z,184.00
2022-07-25T03:15:54.647Z,196.00
2022-07-25T03:16:54.668Z,208.00
2022-07-25T03:17:54.634Z,220.00
2022-07-25T03:18:54.592Z,232.00
2022-07-25T03:19:54.605Z,252.00
2022-07-25T03:20:54.587Z,264.00
2022-07-25T03:21:54.557Z,288.00
2022-07-25T03:22:54.574Z,308.00
2022-07-25T03:23:54.554Z,328.00
2022-07-25T03:24:54.535Z,352.00
2022-07-25T03:25:54.528Z,376.00
2022-07-25T03:26:54.506Z,404.00
2022-07-25T03:27:54.484Z,428.00
2022-07-25T03:28:54.476Z,456.00
2022-07-25T03:29:54.458Z,476.00
2022-07-25T03:30:54.452Z,500.00
2022-07-25T03:31:54.567Z,520.00
2022-07-25T03:32:54.409Z,544.00
2022-07-25T03:33:54.402Z,564.00
2022-07-25T03:34:54.409Z,592.00
2022-07-25T03:35:54.384Z,624.00
2022-07-25T03:36:54.376Z,660.00
2022-07-25T03:37:54.386Z,688.00
2022-07-25T03:38:54.338Z,700.00
2022-07-25T03:39:54.339Z,712.00
2022-07-25T03:40:54.332Z,740.00
2022-07-25T03:41:54.298Z,776.00
2022-07-25T03:42:54.280Z,812.00
2022-07-25T03:43:54.287Z,844.00
2022-07-25T03:44:54.298Z,880.00
2022-07-25T03:45:54.345Z,920.00
2022-07-25T03:46:54.235Z,956.00
2022-07-25T03:47:54.232Z,976.00
2022-07-25T03:48:54.215Z,992.00
2022-07-25T03:49:54.234Z,1004.00
2022-07-25T03:50:54.229Z,1016.00
2022-07-25T03:51:54.183Z,1028.00
2022-07-25T03:52:54.150Z,1060.00
2022-07-25T03:53:54.157Z,1100.00
2022-07-25T03:54:54.153Z,1132.00
2022-07-25T03:55:54.130Z,1172.00
2022-07-25T03:56:54.114Z,1208.00
2022-07-25T03:57:54.105Z,1248.00
2022-07-25T03:58:54.064Z,1264.00
2022-07-25T03:59:54.076Z,1256.00
2022-07-25T04:00:54.098Z,1268.00
2022-07-25T04:01:54.119Z,1268.00
2022-07-25T04:02:54.016Z,1280.00
2022-07-25T04:03:54.025Z,1292.00
2022-07-25T04:04:53.984Z,1300.00
2022-07-25T04:05:54.006Z,1332.00
2022-07-25T04:06:53.983Z,1376.00
2022-07-25T04:07:53.957Z,1432.00
2022-07-25T04:08:53.939Z,1500.00
2022-07-25T04:09:53.925Z,1532.00
2022-07-25T04:10:53.924Z,1552.00
2022-07-25T04:11:53.907Z,1572.00
2022-07-25T04:12:53.902Z,1576.00
2022-07-25T04:13:53.935Z,1556.00
2022-07-25T04:14:53.891Z,1544.00
2022-07-25T04:15:53.865Z,1576.00
2022-07-25T04:16:53.913Z,1616.00
2022-07-25T04:17:53.824Z,1648.00
2022-07-25T04:18:53.809Z,1696.00
2022-07-25T04:19:53.818Z,1736.00
2022-07-25T04:20:53.796Z,1748.00
2022-07-25T04:21:53.781Z,1784.00
2022-07-25T04:22:53.836Z,1848.00
2022-07-25T04:23:53.769Z,1860.00
2022-07-25T04:24:53.732Z,1908.00
2022-07-25T04:25:53.736Z,2000.00
2022-07-25T04:26:53.704Z,2088.00
2022-07-25T04:27:53.740Z,2136.00
2022-07-25T04:28:53.718Z,2188.00
2022-07-25T04:29:53.688Z,2252.00
2022-07-25T04:30:53.671Z,2296.00
2022-07-25T04:31:53.711Z,2324.00
2022-07-25T04:32:53.648Z,2352.00
2022-07-25T04:33:53.657Z,2372.00
2022-07-25T04:34:53.635Z,2384.00
2022-07-25T04:35:53.613Z,2396.00
2022-07-25T04:36:53.593Z,2412.00
2022-07-25T04:37:53.568Z,2416.00
2022-07-25T04:38:53.569Z,2420.00
2022-07-25T04:39:53.576Z,2456.00
2022-07-25T04:40:53.556Z,2484.00
2022-07-25T04:41:53.514Z,2576.00
2022-07-25T04:42:53.625Z,2596.00
2022-07-25T04:43:53.496Z,2636.00
2022-07-25T04:44:53.505Z,2676.00
2022-07-25T04:45:53.543Z,2712.00
2022-07-25T04:46:53.470Z,2724.00
2022-07-25T04:47:53.451Z,2756.00
2022-07-25T04:48:53.545Z,2792.00
2022-07-25T04:49:53.417Z,2772.00
2022-07-25T04:50:53.409Z,2744.00
2022-07-25T04:51:53.387Z,2724.00
2022-07-25T04:52:53.391Z,2628.00
2022-07-25T04:53:53.373Z,2748.00
2022-07-25T04:54:53.341Z,2732.00
2022-07-25T04:55:53.367Z,2736.00
2022-07-25T04:56:53.322Z,2752.00
2022-07-25T04:57:53.325Z,2760.00
2022-07-25T04:58:53.307Z,2772.00
2022-07-25T04:59:53.278Z,2784.00
2022-07-25T05:00:53.359Z,2784.00
2022-07-25T05:01:53.298Z,2800.00
2022-07-25T05:02:53.238Z,2800.00
2022-07-25T05:03:53.224Z,2800.00
2022-07-25T05:04:53.198Z,2876.00
2022-07-25T05:05:53.213Z,2880.00
2022-07-25T05:06:53.185Z,2892.00
2022-07-25T05:07:53.170Z,2900.00
2022-07-25T05:08:53.176Z,2896.00
2022-07-25T05:09:53.160Z,2888.00
2022-07-25T05:10:54.052Z,2876.00
2022-07-25T05:11:56.514Z,2876.00
2022-07-25T05:12:53.090Z,2860.00
2022-07-25T05:13:53.117Z,2856.00
2022-07-25T05:14:53.074Z,3012.00
2022-07-25T05:15:53.153Z,3036.00
2022-07-25T05:16:53.139Z,3056.00
2022-07-25T05:17:53.034Z,3076.00
2022-07-25T05:18:53.031Z,3088.00
2022-07-25T05:19:53.031Z,3092.00
2022-07-25T05:20:53.002Z,3108.00
2022-07-25T05:21:52.996Z,3068.00
2022-07-25T05:22:52.973Z,3172.00
2022-07-25T05:23:52.950Z,3208.00
2022-07-25T05:24:52.953Z,3180.00
2022-07-25T05:25:52.961Z,3160.00
2022-07-25T05:26:52.929Z,3320.00
2022-07-25T05:27:52.897Z,3332.00
2022-07-25T05:28:52.897Z,3288.00
2022-07-25T05:29:52.874Z,3352.00
2022-07-25T05:30:52.870Z,3344.00
2022-07-25T05:31:52.909Z,3340.00
2022-07-25T05:32:52.848Z,3344.00
2022-07-25T05:33:52.833Z,3352.00
2022-07-25T05:34:52.803Z,3368.00
2022-07-25T05:35:52.803Z,3384.00
2022-07-25T05:36:52.797Z,3384.00
2022-07-25T05:37:52.778Z,3384.00
2022-07-25T05:38:52.762Z,3396.00
2022-07-25T05:39:52.771Z,3324.00
2022-07-25T05:40:52.722Z,3460.00
2022-07-25T05:41:52.717Z,3468.00
2022-07-25T05:42:52.699Z,3492.00
2022-07-25T05:43:52.720Z,3524.00
2022-07-25T05:44:52.670Z,3556.00
2022-07-25T05:45:52.693Z,3580.00
2022-07-25T05:46:52.704Z,3600.00
2022-07-25T05:47:52.656Z,3620.00
2022-07-25T05:48:52.660Z,3644.00
2022-07-25T05:49:52.608Z,3672.00
2022-07-25T05:50:52.662Z,3700.00
2022-07-25T05:51:52.612Z,3728.00
2022-07-25T05:52:52.583Z,3752.00
2022-07-25T05:53:52.577Z,3780.00
2022-07-25T05:54:52.558Z,3808.00
2022-07-25T05:55:52.555Z,3840.00
2022-07-25T05:56:52.534Z,3872.00
2022-07-25T05:57:52.521Z,3904.00
2022-07-25T05:58:52.504Z,3928.00
2022-07-25T05:59:52.496Z,3960.00
2022-07-25T06:00:52.488Z,3988.00
2022-07-25T06:01:52.523Z,4016.00
2022-07-25T06:02:52.595Z,4044.00
2022-07-25T06:03:52.453Z,4072.00
2022-07-25T06:04:52.457Z,4104.00
2022-07-25T06:05:52.463Z,4136.00
2022-07-25T06:06:52.412Z,4168.00
2022-07-25T06:07:52.381Z,4200.00
2022-07-25T06:08:52.388Z,4232.00
2022-07-25T06:09:52.362Z,4268.00
2022-07-25T06:10:52.367Z,4296.00
2022-07-25T06:12:00.476Z,4324.00
2022-07-25T06:12:52.319Z,4356.00
2022-07-25T06:13:52.357Z,4380.00
2022-07-25T06:14:52.325Z,4416.00
2022-07-25T06:15:52.376Z,4444.00
2022-07-25T06:16:52.371Z,4464.00
2022-07-25T06:17:52.263Z,4488.00
2022-07-25T06:18:52.246Z,4516.00
2022-07-25T06:19:52.255Z,4532.00
2022-07-25T06:20:52.203Z,4560.00
2022-07-25T06:21:52.199Z,4580.00
2022-07-25T06:22:52.192Z,4608.00
2022-07-25T06:23:52.253Z,4632.00
2022-07-25T06:24:52.166Z,4656.00
2022-07-25T06:25:52.158Z,4680.00
2022-07-25T06:26:52.159Z,4704.00
2022-07-25T06:27:52.117Z,4728.00
2022-07-25T06:28:52.116Z,4744.00
2022-07-25T06:29:52.080Z,4768.00
2022-07-25T06:30:52.086Z,4796.00
2022-07-25T06:31:52.150Z,4816.00
2022-07-25T06:32:52.072Z,4836.00
2022-07-25T06:33:52.030Z,4852.00
2022-07-25T06:34:52.046Z,4864.00
2022-07-25T06:35:52.040Z,4888.00
2022-07-25T06:36:52.009Z,4908.00
2022-07-25T06:37:52.008Z,4932.00
2022-07-25T06:38:52.005Z,4956.00
2022-07-25T06:39:51.993Z,4988.00
2022-07-25T06:40:51.973Z,5004.00
2022-07-25T06:41:51.963Z,5032.00
2022-07-25T06:42:51.916Z,5060.00
2022-07-25T06:43:51.929Z,5092.00
2022-07-25T06:44:51.913Z,5116.00
2022-07-25T06:45:51.893Z,5144.00
2022-07-25T06:46:51.929Z,5172.00
2022-07-25T06:47:51.884Z,5196.00
2022-07-25T06:48:51.904Z,5216.00
2022-07-25T06:49:51.827Z,5228.00
2022-07-25T06:50:51.867Z,5256.00
2022-07-25T06:51:51.821Z,5280.00
2022-07-25T06:52:51.828Z,5312.00
2022-07-25T06:53:51.815Z,5344.00
2022-07-25T06:54:51.765Z,5376.00
2022-07-25T06:55:51.760Z,5412.00
2022-07-25T06:56:51.772Z,5448.00
2022-07-25T06:57:51.754Z,5476.00
2022-07-25T06:58:51.750Z,5516.00
2022-07-25T06:59:51.705Z,5552.00
2022-07-25T07:00:51.755Z,5584.00
2022-07-25T07:01:52.027Z,5620.00
2022-07-25T07:02:51.728Z,5652.00
2022-07-25T07:03:51.729Z,5676.00
2022-07-25T07:04:51.645Z,5708.00
2022-07-25T07:05:51.648Z,5724.00
2022-07-25T07:06:51.621Z,5760.00
2022-07-25T07:07:51.612Z,5780.00
2022-07-25T07:08:51.590Z,5800.00
2022-07-25T07:09:51.562Z,5820.00
2022-07-25T07:10:51.581Z,5844.00
2022-07-25T07:11:51.576Z,5880.00
2022-07-25T07:12:51.526Z,5900.00
2022-07-25T07:13:51.535Z,5924.00
2022-07-25T07:14:51.521Z,5948.00
2022-07-25T07:15:51.560Z,5968.00
2022-07-25T07:16:51.501Z,6000.00
2022-07-25T07:17:51.485Z,6020.00
2022-07-25T07:18:51.454Z,6040.00
2022-07-25T07:19:51.455Z,6080.00
2022-07-25T07:20:51.487Z,6112.00
2022-07-25T07:21:51.423Z,6136.00
2022-07-25T07:22:51.401Z,6168.00
2022-07-25T07:23:53.390Z,6192.00
2022-07-25T07:24:51.372Z,6228.00
2022-07-25T07:25:51.465Z,6256.00
2022-07-25T07:26:51.411Z,6288.00
2022-07-25T07:27:51.378Z,6320.00
2022-07-25T07:28:51.336Z,6364.00
2022-07-25T07:29:51.304Z,6396.00
2022-07-25T07:31:16.172Z,6436.00
2022-07-25T07:31:51.346Z,6464.00
2022-07-25T07:32:51.274Z,6496.00
2022-07-25T07:33:51.254Z,6536.00
2022-07-25T07:34:51.241Z,6568.00
2022-07-25T07:35:51.225Z,6608.00
2022-07-25T07:36:51.233Z,6632.00
2022-07-25T07:37:51.260Z,6668.00
2022-07-25T07:38:51.206Z,6692.00
2022-07-25T07:39:51.184Z,6724.00
2022-07-25T07:40:51.180Z,6760.00
2022-07-25T07:41:51.149Z,6804.00
2022-07-25T07:42:51.159Z,6832.00
2022-07-25T07:43:51.118Z,6872.00
2022-07-25T07:44:51.143Z,6912.00
2022-07-25T07:45:51.113Z,6952.00
2022-07-25T07:46:51.200Z,6984.00
2022-07-25T07:47:51.093Z,7008.00
2022-07-25T07:48:51.127Z,7040.00
2022-07-25T07:49:51.040Z,7080.00
2022-07-25T07:50:51.054Z,7120.00
2022-07-25T07:51:51.059Z,7164.00
2022-07-25T07:52:51.009Z,7208.00
2022-07-25T07:53:51.020Z,7252.00
2022-07-25T07:54:50.982Z,7292.00
2022-07-25T07:55:50.976Z,7332.00
2022-07-25T07:56:50.952Z,7368.00
2022-07-25T07:57:50.931Z,7424.00
2022-07-25T07:58:50.930Z,7504.00
2022-07-25T07:59:50.948Z,7584.00
2022-07-25T08:00:50.917Z,7708.00
2022-07-25T08:01:50.963Z,7976.00
2022-07-25T08:02:50.974Z,8496.00
2022-07-25T08:03:50.860Z,10024.00
2022-07-25T08:04:50.859Z,21984.00
2022-07-25T08:05:50.845Z,32352.00
2022-07-25T08:06:50.840Z,21504.00
2022-07-25T08:07:50.813Z,11348.00
2022-07-25T08:08:50.818Z,11804.00
2022-07-25T08:09:50.801Z,19328.00
2022-07-25T08:10:53.491Z,43360.00
2022-07-25T08:11:50.791Z,59392.00
2022-07-25T08:12:50.789Z,67680.00
2022-07-25T08:13:50.774Z,67616.00
2022-07-25T08:14:50.755Z,68160.00
2022-07-25T08:15:50.756Z,66656.00
2022-07-25T08:16:50.747Z,53152.00
2022-07-25T08:17:50.729Z,27136.00
2022-07-25T08:18:50.689Z,9752.00
2022-07-25T08:19:50.706Z,9192.00
2022-07-25T08:20:50.710Z,9032.00
2022-07-25T08:21:50.627Z,8948.00
2022-07-25T08:22:56.100Z,8852.00
2022-07-25T08:23:50.635Z,8756.00
2022-07-25T08:24:50.615Z,8824.00
2022-07-25T08:25:50.606Z,9460.00
2022-07-25T08:26:50.606Z,29120.00
2022-07-25T08:27:50.577Z,48640.00
2022-07-25T08:29:05.038Z,60032.00
2022-07-25T08:29:50.536Z,69312.00
2022-07-25T08:30:50.627Z,58208.00
2022-07-25T08:31:50.653Z,27008.00
2022-07-25T08:32:50.495Z,35104.00
2022-07-25T08:33:50.512Z,64096.00
2022-07-25T08:34:50.516Z,69024.00
2022-07-25T08:35:50.457Z,37984.00
2022-07-25T08:36:50.443Z,21440.00
2022-07-25T08:37:50.427Z,30432.00
2022-07-25T08:38:50.424Z,20640.00
2022-07-25T08:39:50.408Z,11428.00
2022-07-25T08:40:50.411Z,11272.00
2022-07-25T08:41:50.378Z,21760.00
2022-07-25T08:42:50.405Z,37760.00
2022-07-25T08:43:50.379Z,55872.00
2022-07-25T08:44:50.382Z,69792.00
2022-07-25T08:45:50.339Z,70784.00
2022-07-25T08:46:50.372Z,42176.00
2022-07-25T08:47:50.316Z,14908.00
2022-07-25T08:48:50.338Z,17012.00
2022-07-25T08:49:50.306Z,47488.00
2022-07-25T08:50:50.284Z,73024.00
2022-07-25T08:51:51.597Z,77184.00
2022-07-25T08:52:50.273Z,77120.00
2022-07-25T08:53:50.258Z,75168.00
2022-07-25T08:54:50.228Z,75744.00
2022-07-25T08:55:50.239Z,78720.00
2022-07-25T08:56:50.229Z,84544.00
2022-07-25T08:57:50.208Z,80224.00
2022-07-25T08:58:50.194Z,76160.00
2022-07-25T08:59:50.201Z,80960.00
2022-07-25T09:00:50.196Z,79584.00
2022-07-25T09:01:50.214Z,75008.00
2022-07-25T09:02:50.170Z,77728.00
2022-07-25T09:03:50.162Z,79392.00
2022-07-25T09:04:50.111Z,76224.00
2022-07-25T09:05:50.107Z,78880.00
2022-07-25T09:06:50.107Z,80704.00
2022-07-25T09:07:50.068Z,82432.00
2022-07-25T09:08:50.080Z,87072.00
2022-07-25T09:09:50.087Z,82016.00
2022-07-25T09:10:50.094Z,82400.00
2022-07-25T09:11:50.050Z,86336.00
2022-07-25T09:12:50.036Z,81120.00
2022-07-25T09:13:50.037Z,77184.00
2022-07-25T09:14:50.029Z,76800.00
2022-07-25T09:15:50.061Z,80448.00
2022-07-25T09:16:49.972Z,77248.00
2022-07-25T09:17:49.954Z,74080.00
2022-07-25T09:18:49.975Z,78848.00
2022-07-25T09:19:49.951Z,82368.00
2022-07-25T09:20:49.962Z,85664.00
2022-07-25T09:21:50.128Z,82048.00
2022-07-25T09:22:49.924Z,83840.00
2022-07-25T09:23:49.930Z,88256.00
2022-07-25T09:24:49.906Z,83360.00
2022-07-25T09:25:49.893Z,84992.00
2022-07-25T09:26:49.889Z,91296.00
2022-07-25T09:27:49.872Z,87360.00
2022-07-25T09:28:49.855Z,84352.00
2022-07-25T09:29:49.830Z,90048.00
2022-07-25T09:30:49.876Z,95104.00
2022-07-25T09:31:49.808Z,90784.00
2022-07-25T09:32:49.823Z,87264.00
2022-07-25T09:33:49.782Z,88448.00
2022-07-25T09:34:49.800Z,87488.00
2022-07-25T09:35:49.766Z,88096.00
2022-07-25T09:36:49.773Z,91840.00
2022-07-25T09:37:49.775Z,89152.00
2022-07-25T09:38:49.732Z,82400.00
2022-07-25T09:39:49.739Z,87040.00
2022-07-25T09:40:49.720Z,93120.00
2022-07-25T09:41:49.691Z,87872.00
2022-07-25T09:42:49.720Z,84928.00
2022-07-25T09:43:49.717Z,90816.00
2022-07-25T09:44:49.670Z,95744.00
2022-07-25T09:45:49.682Z,95648.00
2022-07-25T09:46:49.688Z,90496.00
2022-07-25T09:47:49.632Z,91936.00
2022-07-25T09:48:49.675Z,94112.00
2022-07-25T09:49:49.633Z,94176.00
2022-07-25T09:50:49.607Z,90432.00
2022-07-25T09:51:49.610Z,91360.00
2022-07-25T09:52:49.593Z,96416.00
2022-07-25T09:53:49.574Z,97088.00
2022-07-25T09:54:49.575Z,91072.00
2022-07-25T09:55:49.559Z,88800.00
2022-07-25T09:56:49.561Z,90272.00
2022-07-25T09:57:49.566Z,92960.00
2022-07-25T09:58:49.551Z,92064.00
2022-07-25T09:59:49.499Z,92832.00
2022-07-25T10:00:49.497Z,95616.00
2022-07-25T10:01:49.593Z,97536.00
2022-07-25T10:02:49.567Z,97728.00
2022-07-25T10:03:49.486Z,93184.00
2022-07-25T10:04:49.487Z,97216.00
2022-07-25T10:05:49.467Z,101216.00
2022-07-25T10:06:49.454Z,93600.00
2022-07-25T10:07:49.432Z,92704.00
2022-07-25T10:08:49.430Z,101408.00
2022-07-25T10:09:49.634Z,97824.00
2022-07-25T10:10:49.416Z,89984.00
2022-07-25T10:11:49.378Z,97056.00
2022-07-25T10:12:49.390Z,98976.00
2022-07-25T10:13:49.393Z,91584.00
2022-07-25T10:14:49.350Z,91680.00
2022-07-25T10:15:49.364Z,91648.00
2022-07-25T10:16:49.403Z,89120.00
2022-07-25T10:17:49.330Z,94080.00
2022-07-25T10:18:49.330Z,95104.00
2022-07-25T10:19:54.283Z,87424.00
2022-07-25T10:20:49.315Z,87680.00
2022-07-25T10:21:49.302Z,92672.00
2022-07-25T10:22:57.615Z,91200.00
2022-07-25T10:23:49.261Z,91200.00
2022-07-25T10:24:49.273Z,96096.00
2022-07-25T10:25:49.474Z,95008.00
2022-07-25T10:26:49.237Z,91200.00
2022-07-25T10:27:49.253Z,95040.00
2022-07-25T10:28:49.236Z,97984.00
2022-07-25T10:29:49.196Z,92320.00
2022-07-25T10:30:49.247Z,83232.00
2022-07-25T10:31:51.607Z,38080.00
2022-07-25T10:32:49.195Z,93888.00
2022-07-25T10:33:49.198Z,97088.00
2022-07-25T10:34:49.156Z,100256.00
2022-07-25T10:35:49.151Z,111904.00
2022-07-25T10:36:49.134Z,110624.00
2022-07-25T10:37:49.381Z,101856.00
2022-07-25T10:38:49.144Z,100608.00
2022-07-25T10:39:49.255Z,104128.00
2022-07-25T10:40:49.103Z,108192.00
2022-07-25T10:41:49.074Z,109760.00
2022-07-25T10:42:49.078Z,100384.00
2022-07-25T10:43:49.080Z,87616.00
2022-07-25T10:44:49.078Z,93952.00
2022-07-25T10:45:49.094Z,105344.00
2022-07-25T10:46:49.039Z,76480.00
2022-07-25T10:47:49.017Z,93536.00
2022-07-25T10:48:49.064Z,98144.00
2022-07-25T10:50:56.855Z,104288.00
2022-07-25T10:51:49.002Z,102624.00
2022-07-25T10:52:48.978Z,102112.00
2022-07-25T10:53:48.982Z,100576.00
2022-07-25T10:54:48.966Z,98176.00
2022-07-25T10:56:04.894Z,102112.00
2022-07-25T10:56:48.973Z,103456.00
2022-07-25T10:58:15.285Z,100096.00
2022-07-25T10:58:48.922Z,101664.00
2022-07-25T10:59:48.897Z,99552.00
2022-07-25T11:00:48.904Z,94528.00
2022-07-25T11:01:48.965Z,105280.00
2022-07-25T11:02:48.965Z,108896.00
2022-07-25T11:03:48.878Z,94528.00
2022-07-25T11:04:49.389Z,95872.00
2022-07-25T11:05:48.867Z,98976.00
2022-07-25T11:06:48.836Z,91712.00
2022-07-25T11:08:11.234Z,90240.00
2022-07-25T11:08:48.805Z,96320.00
2022-07-25T11:09:48.804Z,101216.00
2022-07-25T11:10:48.808Z,100000.00
2022-07-25T11:11:48.814Z,96512.00
2022-07-25T11:12:48.780Z,103456.00
2022-07-25T11:13:48.773Z,106336.00
2022-07-25T11:14:48.764Z,100064.00
2022-07-25T11:15:48.742Z,95552.00
2022-07-25T11:16:48.866Z,97312.00
2022-07-25T11:17:48.731Z,100000.00
2022-07-25T11:18:48.729Z,100160.00
2022-07-25T11:19:48.714Z,28896.00
2022-07-25T11:20:48.700Z,102336.00
2022-07-25T11:21:48.695Z,99360.00
2022-07-25T11:22:48.672Z,97120.00
2022-07-25T11:23:48.661Z,96800.00
2022-07-25T11:24:48.678Z,97760.00
2022-07-25T11:25:48.636Z,93536.00
2022-07-25T11:26:48.624Z,93920.00
2022-07-25T11:27:48.660Z,98272.00
2022-07-25T11:28:48.598Z,99296.00
2022-07-25T11:29:48.621Z,25280.00
2022-07-25T11:30:48.585Z,46048.00
2022-07-25T11:31:48.641Z,99936.00
2022-07-25T11:32:48.586Z,105888.00
2022-07-25T11:33:48.561Z,101664.00
2022-07-25T11:34:48.589Z,104608.00
2022-07-25T11:35:48.554Z,103520.00
2022-07-25T11:36:48.544Z,102144.00
2022-07-25T11:37:48.531Z,99936.00
2022-07-25T11:38:48.495Z,97888.00
2022-07-25T11:39:48.496Z,105376.00
2022-07-25T11:40:48.501Z,103456.00
2022-07-25T11:41:48.498Z,96576.00
2022-07-25T11:42:48.484Z,101248.00
2022-07-25T11:43:48.471Z,101408.00
2022-07-25T11:44:48.579Z,93760.00
2022-07-25T11:45:48.503Z,31232.00
2022-07-25T11:46:48.417Z,105760.00
2022-07-25T11:47:48.453Z,102752.00
2022-07-25T11:48:48.472Z,101792.00
2022-07-25T11:49:48.412Z,101248.00
2022-07-25T11:50:48.427Z,27680.00
2022-07-25T11:51:48.369Z,103008.00
2022-07-25T11:52:48.375Z,32640.00
2022-07-25T11:53:48.347Z,51776.00
2022-07-25T11:54:48.366Z,28384.00
2022-07-25T11:55:48.347Z,108352.00
2022-07-25T11:56:48.357Z,54464.00
2022-07-25T11:57:48.332Z,30688.00
2022-07-25T11:58:48.344Z,31488.00
2022-07-25T11:59:48.309Z,24480.00
2022-07-25T12:00:48.279Z,23232.00
2022-07-25T12:01:48.313Z,23904.00
2022-07-25T12:02:48.407Z,36192.00
2022-07-25T12:03:48.335Z,103232.00
2022-07-25T12:04:48.253Z,98560.00
2022-07-25T12:05:48.311Z,107232.00
2022-07-25T12:06:48.209Z,103040.00
2022-07-25T12:07:48.223Z,98752.00
2022-07-25T12:08:48.199Z,29344.00
2022-07-25T12:09:48.198Z,63360.00
2022-07-25T12:10:48.186Z,60640.00
2022-07-25T12:11:48.190Z,84640.00
2022-07-25T12:12:48.187Z,106112.00
2022-07-25T12:13:48.188Z,108320.00
2022-07-25T12:14:48.180Z,105984.00
2022-07-25T12:15:48.192Z,102400.00